sensor_id;sensor_type;location;lat;lon;timestamp;pressure;altitude;pressure_sealevel;temperature;humidity
42771;BME280;28426;42.872;25.314;2023-04-07T00:02:19;96698.22;;;2.71;49.78
42771;BME280;28426;42.872;25.314;2023-04-07T00:04:50;96697.13;;;2.64;49.15
42771;BME280;28426;42.872;25.314;2023-04-07T00:07:21;96700.34;;;2.58;49.94
42771;BME280;28426;42.872;25.314;2023-04-07T00:09:54;96677.31;;;2.60;50.17
42771;BME280;28426;42.872;25.314;2023-04-07T00:12:25;96701.09;;;2.78;49.20
42771;BME280;28426;42.872;25.314;2023-04-07T00:14:56;96697.22;;;2.72;49.48
42771;BME280;28426;42.872;25.314;2023-04-07T00:17:29;96698.84;;;2.55;49.33
42771;BME280;28426;42.872;25.314;2023-04-07T00:20:00;96698.13;;;2.53;49.46
42771;BME280;28426;42.872;25.314;2023-04-07T00:22:31;96698.78;;;2.65;49.64
42771;BME280;28426;42.872;25.314;2023-04-07T00:25:05;96697.81;;;2.66;48.84
42771;BME280;28426;42.872;25.314;2023-04-07T00:27:38;96702.50;;;2.72;49.13
42771;BME280;28426;42.872;25.314;2023-04-07T00:30:09;96698.59;;;2.77;49.24
42771;BME280;28426;42.872;25.314;2023-04-07T00:32:42;96695.72;;;2.70;48.21
42771;BME280;28426;42.872;25.314;2023-04-07T00:35:13;96699.22;;;2.60;48.65
42771;BME280;28426;42.872;25.314;2023-04-07T00:37:43;96707.44;;;2.47;49.28
42771;BME280;28426;42.872;25.314;2023-04-07T00:40:17;96702.50;;;2.25;49.93
42771;BME280;28426;42.872;25.314;2023-04-07T00:42:48;96700.84;;;2.33;50.77
42771;BME280;28426;42.872;25.314;2023-04-07T00:45:19;96696.22;;;2.45;50.23
42771;BME280;28426;42.872;25.314;2023-04-07T00:47:50;96695.47;;;2.63;50.54
42771;BME280;28426;42.872;25.314;2023-04-07T00:50:21;96685.84;;;2.72;49.66
42771;BME280;28426;42.872;25.314;2023-04-07T00:52:52;96697.22;;;2.72;49.74
42771;BME280;28426;42.872;25.314;2023-04-07T00:55:26;96710.31;;;2.54;51.78
42771;BME280;28426;42.872;25.314;2023-04-07T00:57:57;96696.09;;;2.47;49.31
42771;BME280;28426;42.872;25.314;2023-04-07T01:00:29;96676.09;;;2.54;49.26
42771;BME280;28426;42.872;25.314;2023-04-07T01:03:07;96682.59;;;2.60;48.61
42771;BME280;28426;42.872;25.314;2023-04-07T01:05:44;96689.31;;;2.44;48.65
42771;BME280;28426;42.872;25.314;2023-04-07T01:08:20;96676.03;;;2.26;49.18
42771;BME280;28426;42.872;25.314;2023-04-07T01:11:01;96682.66;;;2.40;50.15
42771;BME280;28426;42.872;25.314;2023-04-07T01:13:39;96674.31;;;2.45;50.84
42771;BME280;28426;42.872;25.314;2023-04-07T01:16:22;96675.44;;;2.42;50.15
42771;BME280;28426;42.872;25.314;2023-04-07T01:18:57;96672.41;;;2.37;52.54
42771;BME280;28426;42.872;25.314;2023-04-07T01:21:33;96675.03;;;2.47;52.54
42771;BME280;28426;42.872;25.314;2023-04-07T01:24:23;96680.53;;;2.54;52.29
42771;BME280;28426;42.872;25.314;2023-04-07T01:27:16;96672.41;;;2.37;53.42
42771;BME280;28426;42.872;25.314;2023-04-07T01:29:52;96671.91;;;2.24;54.49
42771;BME280;28426;42.872;25.314;2023-04-07T01:32:25;96667.16;;;2.37;54.15
42771;BME280;28426;42.872;25.314;2023-04-07T01:34:58;96672.94;;;2.41;54.15
42771;BME280;28426;42.872;25.314;2023-04-07T01:37:29;96672.69;;;2.34;54.27
42771;BME280;28426;42.872;25.314;2023-04-07T01:40:01;96666.97;;;2.11;54.66
42771;BME280;28426;42.872;25.314;2023-04-07T01:42:33;96676.91;;;2.17;55.33
42771;BME280;28426;42.872;25.314;2023-04-07T01:45:08;96669.66;;;2.29;55.33
42771;BME280;28426;42.872;25.314;2023-04-07T01:47:39;96672.59;;;2.26;55.04
42771;BME280;28426;42.872;25.314;2023-04-07T01:50:11;96670.81;;;2.16;55.57
42771;BME280;28426;42.872;25.314;2023-04-07T01:52:42;96669.31;;;2.04;56.13
42771;BME280;28426;42.872;25.314;2023-04-07T01:55:14;96665.13;;;2.11;55.62
42771;BME280;28426;42.872;25.314;2023-04-07T01:57:58;96667.47;;;2.24;55.49
42771;BME280;28426;42.872;25.314;2023-04-07T02:00:37;96662.59;;;2.39;53.78
42771;BME280;28426;42.872;25.314;2023-04-07T02:03:19;96668.25;;;2.44;52.91
42771;BME280;28426;42.872;25.314;2023-04-07T02:05:54;96675.56;;;2.41;53.75
42771;BME280;28426;42.872;25.314;2023-04-07T02:08:28;96661.38;;;2.24;54.87
42771;BME280;28426;42.872;25.314;2023-04-07T02:11:01;96655.31;;;2.03;55.16
42771;BME280;28426;42.872;25.314;2023-04-07T02:13:36;96668.06;;;2.08;55.77
42771;BME280;28426;42.872;25.314;2023-04-07T02:16:34;96658.75;;;2.24;55.03
42771;BME280;28426;42.872;25.314;2023-04-07T02:19:05;96652.69;;;2.13;55.77
42771;BME280;28426;42.872;25.314;2023-04-07T02:21:36;96661.91;;;2.27;55.64
42771;BME280;28426;42.872;25.314;2023-04-07T02:24:11;96658.25;;;2.38;54.94
42771;BME280;28426;42.872;25.314;2023-04-07T02:26:42;96659.53;;;2.34;53.92
42771;BME280;28426;42.872;25.314;2023-04-07T02:29:13;96664.59;;;2.17;54.88
42771;BME280;28426;42.872;25.314;2023-04-07T02:31:46;96670.00;;;2.06;56.64
42771;BME280;28426;42.872;25.314;2023-04-07T02:34:17;96660.84;;;2.20;56.10
42771;BME280;28426;42.872;25.314;2023-04-07T02:36:48;96655.72;;;2.18;55.90
42771;BME280;28426;42.872;25.314;2023-04-07T02:39:19;96658.88;;;2.22;55.86
42771;BME280;28426;42.872;25.314;2023-04-07T02:41:49;96660.78;;;2.30;55.43
42771;BME280;28426;42.872;25.314;2023-04-07T02:44:20;96667.44;;;2.34;55.73
42771;BME280;28426;42.872;25.314;2023-04-07T02:46:54;96657.09;;;2.22;55.30
42771;BME280;28426;42.872;25.314;2023-04-07T02:49:24;96664.19;;;2.12;56.20
42771;BME280;28426;42.872;25.314;2023-04-07T02:51:55;96657.56;;;1.88;57.33
42771;BME280;28426;42.872;25.314;2023-04-07T02:54:26;96669.59;;;1.91;57.95
42771;BME280;28426;42.872;25.314;2023-04-07T02:56:57;96671.25;;;2.02;57.93
42771;BME280;28426;42.872;25.314;2023-04-07T02:59:28;96673.06;;;2.01;57.18
42771;BME280;28426;42.872;25.314;2023-04-07T03:02:02;96668.09;;;1.88;58.72
42771;BME280;28426;42.872;25.314;2023-04-07T03:04:34;96669.47;;;1.92;59.06
42771;BME280;28426;42.872;25.314;2023-04-07T03:07:05;96660.72;;;2.02;58.27
42771;BME280;28426;42.872;25.314;2023-04-07T03:09:36;96668.22;;;2.06;58.08
42771;BME280;28426;42.872;25.314;2023-04-07T03:12:06;96665.59;;;1.96;59.27
42771;BME280;28426;42.872;25.314;2023-04-07T03:14:37;96667.56;;;1.94;60.03
42771;BME280;28426;42.872;25.314;2023-04-07T03:17:12;96669.03;;;2.07;59.62
42771;BME280;28426;42.872;25.314;2023-04-07T03:19:44;96669.59;;;2.11;58.81
42771;BME280;28426;42.872;25.314;2023-04-07T03:22:15;96663.09;;;2.05;58.87
42771;BME280;28426;42.872;25.314;2023-04-07T03:24:50;96677.09;;;1.86;60.33
42771;BME280;28426;42.872;25.314;2023-04-07T03:27:24;96681.41;;;1.77;61.23
42771;BME280;28426;42.872;25.314;2023-04-07T03:29:56;96684.19;;;1.85;61.12
42771;BME280;28426;42.872;25.314;2023-04-07T03:32:31;96680.56;;;1.86;60.90
42771;BME280;28426;42.872;25.314;2023-04-07T03:35:03;96668.94;;;1.69;61.33
42771;BME280;28426;42.872;25.314;2023-04-07T03:37:33;96677.25;;;1.64;62.36
42771;BME280;28426;42.872;25.314;2023-04-07T03:40:10;96674.19;;;1.69;61.78
42771;BME280;28426;42.872;25.314;2023-04-07T03:42:42;96689.84;;;1.80;60.88
42771;BME280;28426;42.872;25.314;2023-04-07T03:45:15;96682.25;;;1.67;61.83
42771;BME280;28426;42.872;25.314;2023-04-07T03:47:51;96680.31;;;1.50;62.37
42771;BME280;28426;42.872;25.314;2023-04-07T03:50:22;96692.75;;;1.48;62.82
42771;BME280;28426;42.872;25.314;2023-04-07T03:53:12;96694.69;;;1.55;61.58
42771;BME280;28426;42.872;25.314;2023-04-07T03:55:47;96688.88;;;1.52;61.17
42771;BME280;28426;42.872;25.314;2023-04-07T03:58:27;96692.09;;;1.46;62.93
42771;BME280;28426;42.872;25.314;2023-04-07T04:00:58;96694.56;;;1.57;61.93
42771;BME280;28426;42.872;25.314;2023-04-07T04:03:32;96699.56;;;1.60;60.58
42771;BME280;28426;42.872;25.314;2023-04-07T04:06:24;96699.00;;;1.47;60.15
42771;BME280;28426;42.872;25.314;2023-04-07T04:09:03;96703.28;;;1.28;61.07
42771;BME280;28426;42.872;25.314;2023-04-07T04:11:38;96697.16;;;1.08;62.38
42771;BME280;28426;42.872;25.314;2023-04-07T04:14:08;96709.34;;;1.28;62.10
42771;BME280;28426;42.872;25.314;2023-04-07T04:16:41;96689.97;;;1.20;62.43
42771;BME280;28426;42.872;25.314;2023-04-07T04:19:27;96722.34;;;1.30;62.89
42771;BME280;28426;42.872;25.314;2023-04-07T04:22:02;96714.63;;;1.38;63.67
42771;BME280;28426;42.872;25.314;2023-04-07T04:24:39;96701.06;;;1.43;63.36
42771;BME280;28426;42.872;25.314;2023-04-07T04:27:10;96707.28;;;1.52;63.34
42771;BME280;28426;42.872;25.314;2023-04-07T04:29:43;96722.50;;;1.38;63.28
42771;BME280;28426;42.872;25.314;2023-04-07T04:32:16;96723.22;;;1.40;65.28
42771;BME280;28426;42.872;25.314;2023-04-07T04:34:50;96726.41;;;1.54;64.62
42771;BME280;28426;42.872;25.314;2023-04-07T04:37:21;96720.19;;;1.65;64.15
42771;BME280;28426;42.872;25.314;2023-04-07T04:39:53;96725.16;;;1.78;64.17
42771;BME280;28426;42.872;25.314;2023-04-07T04:42:24;96724.06;;;1.90;63.68
42771;BME280;28426;42.872;25.314;2023-04-07T04:44:58;96734.00;;;2.06;63.24
42771;BME280;28426;42.872;25.314;2023-04-07T04:47:31;96718.75;;;2.10;62.93
42771;BME280;28426;42.872;25.314;2023-04-07T04:50:06;96726.06;;;2.26;62.93
42771;BME280;28426;42.872;25.314;2023-04-07T04:52:39;96731.06;;;2.39;62.35
42771;BME280;28426;42.872;25.314;2023-04-07T04:55:18;96730.03;;;2.50;62.27
42771;BME280;28426;42.872;25.314;2023-04-07T04:57:49;96736.78;;;2.63;62.23
42771;BME280;28426;42.872;25.314;2023-04-07T05:00:29;96728.97;;;2.81;62.12
42771;BME280;28426;42.872;25.314;2023-04-07T05:03:04;96731.78;;;2.97;62.17
42771;BME280;28426;42.872;25.314;2023-04-07T05:05:41;96720.66;;;3.04;61.75
42771;BME280;28426;42.872;25.314;2023-04-07T05:08:12;96736.09;;;3.26;61.26
42771;BME280;28426;42.872;25.314;2023-04-07T05:10:43;96730.28;;;3.41;60.85
42771;BME280;28426;42.872;25.314;2023-04-07T05:13:20;96746.16;;;3.59;60.24
42771;BME280;28426;42.872;25.314;2023-04-07T05:15:53;96742.63;;;3.69;59.63
42771;BME280;28426;42.872;25.314;2023-04-07T05:18:24;96747.66;;;3.80;59.21
42771;BME280;28426;42.872;25.314;2023-04-07T05:20:59;96743.94;;;3.91;58.87
42771;BME280;28426;42.872;25.314;2023-04-07T05:23:34;96742.44;;;4.07;58.82
42771;BME280;28426;42.872;25.314;2023-04-07T05:26:06;96753.19;;;4.31;58.78
42771;BME280;28426;42.872;25.314;2023-04-07T05:28:38;96741.94;;;4.56;57.37
42771;BME280;28426;42.872;25.314;2023-04-07T05:31:15;96748.25;;;4.90;57.60
42771;BME280;28426;42.872;25.314;2023-04-07T05:33:48;96750.56;;;5.28;57.93
42771;BME280;28426;42.872;25.314;2023-04-07T05:36:25;96749.34;;;5.73;57.31
42771;BME280;28426;42.872;25.314;2023-04-07T05:38:57;96749.25;;;6.17;56.30
42771;BME280;28426;42.872;25.314;2023-04-07T05:41:28;96746.91;;;6.55;55.49
42771;BME280;28426;42.872;25.314;2023-04-07T05:44:01;96755.44;;;6.90;54.17
42771;BME280;28426;42.872;25.314;2023-04-07T05:46:37;96750.97;;;7.31;52.07
42771;BME280;28426;42.872;25.314;2023-04-07T05:49:09;96742.50;;;7.67;52.17
42771;BME280;28426;42.872;25.314;2023-04-07T05:51:54;96755.66;;;8.07;51.05
42771;BME280;28426;42.872;25.314;2023-04-07T05:54:25;96743.34;;;8.30;49.30
42771;BME280;28426;42.872;25.314;2023-04-07T05:56:57;96749.59;;;8.60;48.89
42771;BME280;28426;42.872;25.314;2023-04-07T05:59:29;96741.53;;;8.99;47.55
42771;BME280;28426;42.872;25.314;2023-04-07T06:02:01;96742.88;;;9.40;47.92
42771;BME280;28426;42.872;25.314;2023-04-07T06:04:33;96741.88;;;9.78;45.92
42771;BME280;28426;42.872;25.314;2023-04-07T06:07:10;96743.06;;;10.19;45.30
42771;BME280;28426;42.872;25.314;2023-04-07T06:09:42;96737.47;;;10.57;44.28
42771;BME280;28426;42.872;25.314;2023-04-07T06:12:14;96735.63;;;10.93;43.14
42771;BME280;28426;42.872;25.314;2023-04-07T06:14:50;96744.00;;;11.19;42.21
42771;BME280;28426;42.872;25.314;2023-04-07T06:17:21;96740.16;;;11.28;40.08
42771;BME280;28426;42.872;25.314;2023-04-07T06:19:52;96742.88;;;11.42;38.72
42771;BME280;28426;42.872;25.314;2023-04-07T06:22:26;96735.13;;;11.60;38.21
42771;BME280;28426;42.872;25.314;2023-04-07T06:24:57;96735.81;;;11.89;38.31
42771;BME280;28426;42.872;25.314;2023-04-07T06:27:28;96743.91;;;12.23;37.59
42771;BME280;28426;42.872;25.314;2023-04-07T06:29:59;96737.75;;;12.57;36.78
42771;BME280;28426;42.872;25.314;2023-04-07T06:32:30;96749.88;;;12.86;37.22
42771;BME280;28426;42.872;25.314;2023-04-07T06:35:01;96740.78;;;13.07;36.05
42771;BME280;28426;42.872;25.314;2023-04-07T06:37:35;96745.66;;;13.31;35.10
42771;BME280;28426;42.872;25.314;2023-04-07T06:40:07;96744.97;;;13.56;34.98
42771;BME280;28426;42.872;25.314;2023-04-07T06:42:38;96755.00;;;13.74;33.58
42771;BME280;28426;42.872;25.314;2023-04-07T06:45:16;96748.03;;;13.98;33.43
42771;BME280;28426;42.872;25.314;2023-04-07T06:47:47;96750.72;;;14.31;34.03
42771;BME280;28426;42.872;25.314;2023-04-07T06:50:17;96749.47;;;14.59;32.52
42771;BME280;28426;42.872;25.314;2023-04-07T06:52:52;96750.91;;;14.87;31.28
42771;BME280;28426;42.872;25.314;2023-04-07T06:55:23;96745.94;;;15.09;30.28
42771;BME280;28426;42.872;25.314;2023-04-07T06:57:54;96754.66;;;15.42;31.55
42771;BME280;28426;42.872;25.314;2023-04-07T07:00:25;96749.44;;;15.66;31.25
42771;BME280;28426;42.872;25.314;2023-04-07T07:02:57;96754.34;;;15.69;30.85
42771;BME280;28426;42.872;25.314;2023-04-07T07:05:29;96752.78;;;15.61;30.06
42771;BME280;28426;42.872;25.314;2023-04-07T07:08:03;96752.78;;;15.61;28.94
42771;BME280;28426;42.872;25.314;2023-04-07T07:10:34;96755.63;;;15.48;28.32
42771;BME280;28426;42.872;25.314;2023-04-07T07:13:05;96763.72;;;15.29;28.15
42771;BME280;28426;42.872;25.314;2023-04-07T07:15:36;96754.13;;;14.96;28.10
42771;BME280;28426;42.872;25.314;2023-04-07T07:18:06;96762.69;;;14.86;28.95
42771;BME280;28426;42.872;25.314;2023-04-07T07:20:38;96761.56;;;14.68;28.17
42771;BME280;28426;42.872;25.314;2023-04-07T07:23:11;96756.25;;;14.36;27.92
42771;BME280;28426;42.872;25.314;2023-04-07T07:25:42;96761.59;;;14.10;27.98
42771;BME280;28426;42.872;25.314;2023-04-07T07:28:13;96776.59;;;13.86;28.38
42771;BME280;28426;42.872;25.314;2023-04-07T07:30:43;96767.22;;;13.63;28.85
42771;BME280;28426;42.872;25.314;2023-04-07T07:33:15;96771.94;;;13.61;29.40
42771;BME280;28426;42.872;25.314;2023-04-07T07:35:46;96782.78;;;13.80;29.45
42771;BME280;28426;42.872;25.314;2023-04-07T07:38:20;96768.38;;;14.13;29.28
42771;BME280;28426;42.872;25.314;2023-04-07T07:40:51;96767.94;;;14.16;27.94
42771;BME280;28426;42.872;25.314;2023-04-07T07:43:22;96779.00;;;14.01;28.33
42771;BME280;28426;42.872;25.314;2023-04-07T07:45:52;96776.03;;;13.70;27.97
42771;BME280;28426;42.872;25.314;2023-04-07T07:48:23;96774.88;;;13.39;27.61
42771;BME280;28426;42.872;25.314;2023-04-07T07:50:54;96783.81;;;13.13;28.76
42771;BME280;28426;42.872;25.314;2023-04-07T07:53:28;96780.97;;;12.87;29.13
42771;BME280;28426;42.872;25.314;2023-04-07T07:55:59;96777.69;;;12.72;29.54
42771;BME280;28426;42.872;25.314;2023-04-07T07:58:30;96776.03;;;12.50;29.17
42771;BME280;28426;42.872;25.314;2023-04-07T08:01:01;96767.59;;;12.26;29.11
42771;BME280;28426;42.872;25.314;2023-04-07T08:03:32;96779.31;;;12.19;29.40
42771;BME280;28426;42.872;25.314;2023-04-07T08:06:04;96774.56;;;12.21;29.88
42771;BME280;28426;42.872;25.314;2023-04-07T08:08:38;96781.19;;;12.32;30.08
42771;BME280;28426;42.872;25.314;2023-04-07T08:11:09;96765.72;;;12.27;30.15
42771;BME280;28426;42.872;25.314;2023-04-07T08:13:40;96772.75;;;12.35;30.02
42771;BME280;28426;42.872;25.314;2023-04-07T08:16:13;96781.59;;;12.35;29.81
42771;BME280;28426;42.872;25.314;2023-04-07T08:18:44;96767.41;;;12.41;29.92
42771;BME280;28426;42.872;25.314;2023-04-07T08:21:15;96778.91;;;12.49;29.51
42771;BME280;28426;42.872;25.314;2023-04-07T08:23:49;96776.44;;;12.40;29.35
42771;BME280;28426;42.872;25.314;2023-04-07T08:26:20;96770.28;;;12.33;30.00
42771;BME280;28426;42.872;25.314;2023-04-07T08:28:51;96770.69;;;12.30;30.57
42771;BME280;28426;42.872;25.314;2023-04-07T08:31:22;96766.16;;;12.24;29.85
42771;BME280;28426;42.872;25.314;2023-04-07T08:33:54;96769.03;;;12.15;29.71
42771;BME280;28426;42.872;25.314;2023-04-07T08:36:26;96778.06;;;12.08;29.69
42771;BME280;28426;42.872;25.314;2023-04-07T08:39:00;96766.28;;;12.02;29.99
42771;BME280;28426;42.872;25.314;2023-04-07T08:41:36;96767.31;;;11.94;30.16
42771;BME280;28426;42.872;25.314;2023-04-07T08:44:07;96765.88;;;11.92;30.79
42771;BME280;28426;42.872;25.314;2023-04-07T08:46:38;96766.06;;;11.97;30.81
42771;BME280;28426;42.872;25.314;2023-04-07T08:49:11;96759.91;;;12.03;30.93
42771;BME280;28426;42.872;25.314;2023-04-07T08:51:44;96769.78;;;12.02;29.98
42771;BME280;28426;42.872;25.314;2023-04-07T08:54:20;96765.63;;;11.86;29.97
42771;BME280;28426;42.872;25.314;2023-04-07T08:56:51;96763.13;;;11.71;30.16
42771;BME280;28426;42.872;25.314;2023-04-07T08:59:23;96759.38;;;11.59;30.93
42771;BME280;28426;42.872;25.314;2023-04-07T09:01:56;96759.13;;;11.47;30.47
42771;BME280;28426;42.872;25.314;2023-04-07T09:04:27;96754.56;;;11.41;30.70
42771;BME280;28426;42.872;25.314;2023-04-07T09:06:59;96759.53;;;11.44;31.34
42771;BME280;28426;42.872;25.314;2023-04-07T09:09:32;96750.22;;;11.33;30.02
42771;BME280;28426;42.872;25.314;2023-04-07T09:12:04;96749.16;;;11.27;31.06
42771;BME280;28426;42.872;25.314;2023-04-07T09:14:34;96756.94;;;11.22;30.77
42771;BME280;28426;42.872;25.314;2023-04-07T09:17:05;96756.13;;;11.15;31.58
42771;BME280;28426;42.872;25.314;2023-04-07T09:19:36;96754.22;;;11.08;31.27
42771;BME280;28426;42.872;25.314;2023-04-07T09:22:07;96757.88;;;11.01;31.61
42771;BME280;28426;42.872;25.314;2023-04-07T09:24:43;96755.53;;;10.91;31.23
42771;BME280;28426;42.872;25.314;2023-04-07T09:27:15;96739.91;;;10.81;32.09
42771;BME280;28426;42.872;25.314;2023-04-07T09:29:47;96744.22;;;10.82;32.47
42771;BME280;28426;42.872;25.314;2023-04-07T09:32:34;96739.44;;;10.77;31.90
42771;BME280;28426;42.872;25.314;2023-04-07T09:35:07;96730.19;;;10.73;32.50
42771;BME280;28426;42.872;25.314;2023-04-07T09:37:38;96735.09;;;10.69;32.98
42771;BME280;28426;42.872;25.314;2023-04-07T09:40:24;96727.63;;;10.58;32.77
42771;BME280;28426;42.872;25.314;2023-04-07T09:42:56;96716.88;;;10.44;33.17
42771;BME280;28426;42.872;25.314;2023-04-07T09:45:28;96731.34;;;10.42;33.50
42771;BME280;28426;42.872;25.314;2023-04-07T09:48:07;96733.16;;;10.34;33.67
42771;BME280;28426;42.872;25.314;2023-04-07T09:50:39;96734.56;;;10.30;34.12
42771;BME280;28426;42.872;25.314;2023-04-07T09:53:12;96723.66;;;10.25;34.27
42771;BME280;28426;42.872;25.314;2023-04-07T09:55:46;96740.16;;;10.36;34.25
42771;BME280;28426;42.872;25.314;2023-04-07T09:58:18;96742.03;;;10.42;34.72
42771;BME280;28426;42.872;25.314;2023-04-07T10:00:49;96740.28;;;10.49;35.11
42771;BME280;28426;42.872;25.314;2023-04-07T10:03:20;96747.97;;;10.59;34.34
42771;BME280;28426;42.872;25.314;2023-04-07T10:05:51;96749.41;;;10.62;33.52
42771;BME280;28426;42.872;25.314;2023-04-07T10:08:23;96756.75;;;10.59;33.49
42771;BME280;28426;42.872;25.314;2023-04-07T10:10:57;96750.16;;;10.55;34.15
42771;BME280;28426;42.872;25.314;2023-04-07T10:13:30;96750.16;;;10.55;34.03
42771;BME280;28426;42.872;25.314;2023-04-07T10:16:04;96751.84;;;10.56;34.05
42771;BME280;28426;42.872;25.314;2023-04-07T10:18:36;96756.97;;;10.58;34.11
42771;BME280;28426;42.872;25.314;2023-04-07T10:21:09;96749.41;;;10.62;34.29
42771;BME280;28426;42.872;25.314;2023-04-07T10:23:57;96756.56;;;10.61;34.04
42771;BME280;28426;42.872;25.314;2023-04-07T10:26:33;96755.38;;;10.64;34.04
42771;BME280;28426;42.872;25.314;2023-04-07T10:29:09;96752.31;;;10.67;34.38
42771;BME280;28426;42.872;25.314;2023-04-07T10:31:41;96748.66;;;10.75;34.61
42771;BME280;28426;42.872;25.314;2023-04-07T10:34:12;96752.03;;;10.83;34.65
42771;BME280;28426;42.872;25.314;2023-04-07T10:37:07;96751.66;;;10.93;33.93
42771;BME280;28426;42.872;25.314;2023-04-07T10:39:40;96756.81;;;10.95;34.12
42771;BME280;28426;42.872;25.314;2023-04-07T10:45:13;96756.81;;;10.95;34.20
42771;BME280;28426;42.872;25.314;2023-04-07T10:48:08;96753.75;;;10.98;34.32
42771;BME280;28426;42.872;25.314;2023-04-07T10:50:40;96759.09;;;10.98;34.64
42771;BME280;28426;42.872;25.314;2023-04-07T10:53:12;96755.78;;;10.96;34.28
42771;BME280;28426;42.872;25.314;2023-04-07T10:55:44;96760.13;;;10.97;33.84
42771;BME280;28426;42.872;25.314;2023-04-07T10:58:20;96753.75;;;10.98;34.47
42771;BME280;28426;42.872;25.314;2023-04-07T11:01:18;96745.97;;;11.03;34.37
42771;BME280;28426;42.872;25.314;2023-04-07T11:03:58;96753.69;;;11.27;34.77
42771;BME280;28426;42.872;25.314;2023-04-07T11:06:31;96752.72;;;11.41;34.85
42771;BME280;28426;42.872;25.314;2023-04-07T11:09:02;96758.31;;;11.53;34.23
42771;BME280;28426;42.872;25.314;2023-04-07T11:11:37;96759.41;;;11.66;34.51
42771;BME280;28426;42.872;25.314;2023-04-07T11:14:09;96756.38;;;11.82;33.71
42771;BME280;28426;42.872;25.314;2023-04-07T11:16:42;96754.94;;;11.93;34.22
42771;BME280;28426;42.872;25.314;2023-04-07T11:19:13;96759.91;;;12.03;33.92
42771;BME280;28426;42.872;25.314;2023-04-07T11:21:44;96762.44;;;12.11;33.84
42771;BME280;28426;42.872;25.314;2023-04-07T11:24:32;96753.81;;;12.16;33.25
42771;BME280;28426;42.872;25.314;2023-04-07T11:27:04;96758.72;;;12.19;32.89
42771;BME280;28426;42.872;25.314;2023-04-07T11:29:36;96754.59;;;12.16;32.89
42771;BME280;28426;42.872;25.314;2023-04-07T11:32:10;96759.97;;;12.16;32.59
42771;BME280;28426;42.872;25.314;2023-04-07T11:34:42;96753.56;;;12.11;32.35
42771;BME280;28426;42.872;25.314;2023-04-07T11:37:24;96747.16;;;11.98;32.77
42771;BME280;28426;42.872;25.314;2023-04-07T11:39:56;96764.69;;;12.08;33.20
42771;BME280;28426;42.872;25.314;2023-04-07T11:42:32;96776.97;;;12.02;33.15
42771;BME280;28426;42.872;25.314;2023-04-07T11:45:04;96771.41;;;11.90;33.79
42771;BME280;28426;42.872;25.314;2023-04-07T11:47:39;96778.56;;;11.76;33.64
42771;BME280;28426;42.872;25.314;2023-04-07T11:50:09;96771.72;;;11.60;34.07
42771;BME280;28426;42.872;25.314;2023-04-07T11:52:41;96777.66;;;11.48;34.68
42771;BME280;28426;42.872;25.314;2023-04-07T11:55:18;96779.22;;;11.36;34.80
42771;BME280;28426;42.872;25.314;2023-04-07T11:57:51;96783.50;;;11.30;35.16
42771;BME280;28426;42.872;25.314;2023-04-07T12:00:22;96791.06;;;11.20;35.50
42771;BME280;28426;42.872;25.314;2023-04-07T12:02:56;96789.56;;;11.10;35.39
42771;BME280;28426;42.872;25.314;2023-04-07T12:05:41;96801.81;;;10.98;35.30
42771;BME280;28426;42.872;25.314;2023-04-07T12:08:12;96802.97;;;10.89;35.82
42771;BME280;28426;42.872;25.314;2023-04-07T12:10:44;96798.34;;;10.76;36.21
42771;BME280;28426;42.872;25.314;2023-04-07T12:13:15;96802.88;;;10.75;36.24
42771;BME280;28426;42.872;25.314;2023-04-07T12:15:46;96805.31;;;10.70;36.34
42771;BME280;28426;42.872;25.314;2023-04-07T12:18:19;96804.84;;;10.66;36.54
42771;BME280;28426;42.872;25.314;2023-04-07T12:20:51;96808.31;;;10.60;36.58
42771;BME280;28426;42.872;25.314;2023-04-07T12:23:23;96801.63;;;10.49;36.46
42771;BME280;28426;42.872;25.314;2023-04-07T12:25:54;96816.09;;;10.40;36.51
42771;BME280;28426;42.872;25.314;2023-04-07T12:28:25;96816.81;;;10.27;36.76
42771;BME280;28426;42.872;25.314;2023-04-07T12:30:56;96822.81;;;10.14;37.07
42771;BME280;28426;42.872;25.314;2023-04-07T12:33:29;96810.34;;;9.99;37.28
42771;BME280;28426;42.872;25.314;2023-04-07T12:36:00;96828.41;;;9.97;37.25
42771;BME280;28426;42.872;25.314;2023-04-07T12:38:31;96817.75;;;9.82;37.79
42771;BME280;28426;42.872;25.314;2023-04-07T12:41:01;96831.53;;;9.86;38.08
42771;BME280;28426;42.872;25.314;2023-04-07T12:43:33;96838.16;;;9.90;37.89
42771;BME280;28426;42.872;25.314;2023-04-07T12:46:04;96841.84;;;9.89;38.08
42771;BME280;28426;42.872;25.314;2023-04-07T12:48:38;96834.38;;;9.84;38.02
42771;BME280;28426;42.872;25.314;2023-04-07T12:51:09;96842.56;;;9.82;37.97
42771;BME280;28426;42.872;25.314;2023-04-07T12:53:39;96846.16;;;9.75;38.08
42771;BME280;28426;42.872;25.314;2023-04-07T12:56:10;96848.38;;;9.71;37.99
42771;BME280;28426;42.872;25.314;2023-04-07T12:58:42;96843.16;;;9.63;38.21
42771;BME280;28426;42.872;25.314;2023-04-07T13:01:13;96843.91;;;9.57;37.91
42771;BME280;28426;42.872;25.314;2023-04-07T13:03:47;96851.59;;;9.51;38.38
42771;BME280;28426;42.872;25.314;2023-04-07T13:06:18;96859.31;;;9.46;38.36
42771;BME280;28426;42.872;25.314;2023-04-07T13:08:49;96858.88;;;9.42;38.39
42771;BME280;28426;42.872;25.314;2023-04-07T13:11:20;96856.75;;;9.38;38.46
42771;BME280;28426;42.872;25.314;2023-04-07T13:13:51;96861.16;;;9.31;38.32
42771;BME280;28426;42.872;25.314;2023-04-07T13:16:25;96850.25;;;9.25;38.67
42771;BME280;28426;42.872;25.314;2023-04-07T13:18:59;96855.75;;;9.24;38.43
42771;BME280;28426;42.872;25.314;2023-04-07T13:21:30;96856.09;;;9.21;38.94
42771;BME280;28426;42.872;25.314;2023-04-07T13:24:13;96860.97;;;9.17;38.50
42771;BME280;28426;42.872;25.314;2023-04-07T13:26:44;96863.81;;;9.15;38.67
42771;BME280;28426;42.872;25.314;2023-04-07T13:29:15;96865.81;;;9.13;38.70
42771;BME280;28426;42.872;25.314;2023-04-07T13:31:46;96867.84;;;9.11;39.27